CYNL

SPECI CYNL 231649Z AUTO 03015G20KT OVC015 14/12 A3007 RMK AO1 SLP180
SPECI
LOCATION
CYNL
DATE - TIME
231649Z
WIND
030 TRUE @ 15 KNOTS GUSTS 20 KNOTS
VISIBILITY
RUNWAY VISUAL RANGE
NOT REPORTED
WEATHER
CLOUDINESS
OVC015
TEMP / DEWPOINT
14 ºC / 12 ºC
ALTIMETER
30.07 in. Hg
RECENT WEATHER
NOT REPORTED
WIND SHEAR
NOT REPORTED
REMARKS
RMK AO1 SLP180
SEA LEVEL PRESSURE: hPa

CYNL

SPECI CYNL 231642Z AUTO 03014G20KT BKN014 OVC019 14/12 A3007 RMK AO1 SLP180
SPECI
LOCATION
CYNL
DATE - TIME
231642Z
WIND
030 TRUE @ 14 KNOTS GUSTS 20 KNOTS
VISIBILITY
RUNWAY VISUAL RANGE
NOT REPORTED
WEATHER
CLOUDINESS
BKN014 OVC019
TEMP / DEWPOINT
14 ºC / 12 ºC
ALTIMETER
30.07 in. Hg
RECENT WEATHER
NOT REPORTED
WIND SHEAR
NOT REPORTED
REMARKS
RMK AO1 SLP180
SEA LEVEL PRESSURE: hPa

CYNL

SPECI CYNL 231637Z AUTO 04013G20KT OVC015 14/12 A3007 RMK AO1 SLP179
SPECI
LOCATION
CYNL
DATE - TIME
231637Z
WIND
040 TRUE @ 13 KNOTS GUSTS 20 KNOTS
VISIBILITY
RUNWAY VISUAL RANGE
NOT REPORTED
WEATHER
CLOUDINESS
OVC015
TEMP / DEWPOINT
14 ºC / 12 ºC
ALTIMETER
30.07 in. Hg
RECENT WEATHER
NOT REPORTED
WIND SHEAR
NOT REPORTED
REMARKS
RMK AO1 SLP179
SEA LEVEL PRESSURE: hPa

Your time UTC time
 
 
Weather data provided by AXYS Technologies Inc., www.axystechnologies.com
 
Station History